sensor_id;sensor_type;location;lat;lon;timestamp;P1;durP1;ratioP1;P2;durP2;ratioP2
2462;SDS011;1243;54.298;10.172;2023-07-20T00:01:13;3.23;;;2.60;;
2462;SDS011;1243;54.298;10.172;2023-07-20T00:03:39;3.43;;;3.23;;
2462;SDS011;1243;54.298;10.172;2023-07-20T00:06:04;2.30;;;2.20;;
2462;SDS011;1243;54.298;10.172;2023-07-20T00:08:30;2.40;;;2.20;;
2462;SDS011;1243;54.298;10.172;2023-07-20T00:10:56;2.07;;;1.87;;
2462;SDS011;1243;54.298;10.172;2023-07-20T00:13:22;2.90;;;2.40;;
2462;SDS011;1243;54.298;10.172;2023-07-20T00:15:47;2.40;;;2.20;;
2462;SDS011;1243;54.298;10.172;2023-07-20T00:18:13;2.60;;;2.17;;
2462;SDS011;1243;54.298;10.172;2023-07-20T00:20:39;2.00;;;1.90;;
2462;SDS011;1243;54.298;10.172;2023-07-20T00:23:05;2.17;;;1.80;;
2462;SDS011;1243;54.298;10.172;2023-07-20T00:25:31;3.30;;;2.17;;
2462;SDS011;1243;54.298;10.172;2023-07-20T00:27:58;3.90;;;2.70;;
2462;SDS011;1243;54.298;10.172;2023-07-20T00:30:24;2.73;;;2.53;;
2462;SDS011;1243;54.298;10.172;2023-07-20T00:32:49;3.13;;;2.13;;
2462;SDS011;1243;54.298;10.172;2023-07-20T00:35:15;2.37;;;2.20;;
2462;SDS011;1243;54.298;10.172;2023-07-20T00:37:41;5.00;;;2.73;;
2462;SDS011;1243;54.298;10.172;2023-07-20T00:40:07;2.50;;;2.40;;
2462;SDS011;1243;54.298;10.172;2023-07-20T00:42:33;4.10;;;2.10;;
2462;SDS011;1243;54.298;10.172;2023-07-20T00:44:59;3.80;;;3.50;;
2462;SDS011;1243;54.298;10.172;2023-07-20T00:47:25;3.60;;;3.30;;
2462;SDS011;1243;54.298;10.172;2023-07-20T00:49:52;2.10;;;2.00;;
2462;SDS011;1243;54.298;10.172;2023-07-20T00:52:18;3.17;;;2.97;;
2462;SDS011;1243;54.298;10.172;2023-07-20T00:54:46;2.60;;;2.50;;
2462;SDS011;1243;54.298;10.172;2023-07-20T00:57:13;3.10;;;2.90;;
2462;SDS011;1243;54.298;10.172;2023-07-20T00:59:41;2.30;;;2.10;;
2462;SDS011;1243;54.298;10.172;2023-07-20T01:02:07;2.50;;;2.30;;
2462;SDS011;1243;54.298;10.172;2023-07-20T01:04:33;3.60;;;2.90;;
2462;SDS011;1243;54.298;10.172;2023-07-20T01:09:49;2.73;;;2.53;;
2462;SDS011;1243;54.298;10.172;2023-07-20T01:12:26;4.23;;;2.50;;
2462;SDS011;1243;54.298;10.172;2023-07-20T01:14:56;2.70;;;2.50;;
2462;SDS011;1243;54.298;10.172;2023-07-20T01:17:22;3.33;;;3.10;;
2462;SDS011;1243;54.298;10.172;2023-07-20T01:19:49;2.83;;;2.63;;
2462;SDS011;1243;54.298;10.172;2023-07-20T01:22:27;3.10;;;2.50;;
2462;SDS011;1243;54.298;10.172;2023-07-20T01:25:07;3.90;;;3.07;;
2462;SDS011;1243;54.298;10.172;2023-07-20T01:30:43;4.20;;;2.77;;
2462;SDS011;1243;54.298;10.172;2023-07-20T01:33:17;3.20;;;2.40;;
2462;SDS011;1243;54.298;10.172;2023-07-20T01:35:46;3.00;;;2.80;;
2462;SDS011;1243;54.298;10.172;2023-07-20T01:38:17;3.07;;;2.80;;
2462;SDS011;1243;54.298;10.172;2023-07-20T01:40:43;4.90;;;3.43;;
2462;SDS011;1243;54.298;10.172;2023-07-20T01:43:09;2.67;;;2.47;;
2462;SDS011;1243;54.298;10.172;2023-07-20T01:45:36;4.60;;;3.13;;
2462;SDS011;1243;54.298;10.172;2023-07-20T01:48:02;5.13;;;2.80;;
2462;SDS011;1243;54.298;10.172;2023-07-20T01:50:29;3.00;;;2.80;;
2462;SDS011;1243;54.298;10.172;2023-07-20T01:52:54;5.73;;;3.27;;
2462;SDS011;1243;54.298;10.172;2023-07-20T01:55:20;3.10;;;2.80;;
2462;SDS011;1243;54.298;10.172;2023-07-20T01:57:46;2.80;;;2.60;;
2462;SDS011;1243;54.298;10.172;2023-07-20T02:00:12;4.33;;;3.70;;
2462;SDS011;1243;54.298;10.172;2023-07-20T02:02:38;3.80;;;3.27;;
2462;SDS011;1243;54.298;10.172;2023-07-20T02:05:03;3.40;;;3.20;;
2462;SDS011;1243;54.298;10.172;2023-07-20T02:07:29;3.37;;;3.07;;
2462;SDS011;1243;54.298;10.172;2023-07-20T02:09:55;3.70;;;2.97;;
2462;SDS011;1243;54.298;10.172;2023-07-20T02:12:20;3.70;;;3.10;;
2462;SDS011;1243;54.298;10.172;2023-07-20T02:14:46;2.60;;;2.40;;
2462;SDS011;1243;54.298;10.172;2023-07-20T02:17:12;3.40;;;2.90;;
2462;SDS011;1243;54.298;10.172;2023-07-20T02:19:40;2.93;;;2.73;;
2462;SDS011;1243;54.298;10.172;2023-07-20T02:22:06;3.40;;;3.10;;
2462;SDS011;1243;54.298;10.172;2023-07-20T02:24:32;6.63;;;3.37;;
2462;SDS011;1243;54.298;10.172;2023-07-20T02:26:59;3.43;;;3.23;;
2462;SDS011;1243;54.298;10.172;2023-07-20T02:29:24;3.10;;;2.90;;
2462;SDS011;1243;54.298;10.172;2023-07-20T02:31:50;3.43;;;3.20;;
2462;SDS011;1243;54.298;10.172;2023-07-20T02:34:16;2.63;;;2.43;;
2462;SDS011;1243;54.298;10.172;2023-07-20T02:36:41;3.57;;;3.27;;
2462;SDS011;1243;54.298;10.172;2023-07-20T02:39:07;3.27;;;2.70;;
2462;SDS011;1243;54.298;10.172;2023-07-20T02:41:33;3.37;;;3.17;;
2462;SDS011;1243;54.298;10.172;2023-07-20T02:43:59;4.87;;;3.50;;
2462;SDS011;1243;54.298;10.172;2023-07-20T02:46:26;3.53;;;3.30;;
2462;SDS011;1243;54.298;10.172;2023-07-20T02:48:52;7.03;;;3.70;;
2462;SDS011;1243;54.298;10.172;2023-07-20T02:51:17;4.00;;;3.70;;
2462;SDS011;1243;54.298;10.172;2023-07-20T02:53:43;4.00;;;3.50;;
2462;SDS011;1243;54.298;10.172;2023-07-20T02:56:09;4.77;;;3.47;;
2462;SDS011;1243;54.298;10.172;2023-07-20T02:58:34;3.57;;;3.30;;
2462;SDS011;1243;54.298;10.172;2023-07-20T03:01:03;3.17;;;2.97;;
2462;SDS011;1243;54.298;10.172;2023-07-20T03:03:29;3.70;;;3.40;;
2462;SDS011;1243;54.298;10.172;2023-07-20T03:05:55;3.60;;;3.30;;
2462;SDS011;1243;54.298;10.172;2023-07-20T03:08:22;3.70;;;3.40;;
2462;SDS011;1243;54.298;10.172;2023-07-20T03:10:48;3.00;;;2.80;;
2462;SDS011;1243;54.298;10.172;2023-07-20T03:13:14;3.50;;;3.20;;
2462;SDS011;1243;54.298;10.172;2023-07-20T03:15:41;2.90;;;2.70;;
2462;SDS011;1243;54.298;10.172;2023-07-20T03:18:06;4.07;;;3.70;;
2462;SDS011;1243;54.298;10.172;2023-07-20T03:20:32;3.63;;;3.33;;
2462;SDS011;1243;54.298;10.172;2023-07-20T03:23:00;7.10;;;3.60;;
2462;SDS011;1243;54.298;10.172;2023-07-20T03:25:25;3.33;;;3.10;;
2462;SDS011;1243;54.298;10.172;2023-07-20T03:27:51;3.77;;;3.47;;
2462;SDS011;1243;54.298;10.172;2023-07-20T03:30:17;3.57;;;2.77;;
2462;SDS011;1243;54.298;10.172;2023-07-20T03:32:43;3.73;;;3.37;;
2462;SDS011;1243;54.298;10.172;2023-07-20T03:35:08;3.80;;;3.00;;
2462;SDS011;1243;54.298;10.172;2023-07-20T03:37:34;3.80;;;3.50;;
2462;SDS011;1243;54.298;10.172;2023-07-20T03:40:01;3.40;;;3.20;;
2462;SDS011;1243;54.298;10.172;2023-07-20T03:42:28;3.07;;;2.67;;
2462;SDS011;1243;54.298;10.172;2023-07-20T03:44:53;3.50;;;2.90;;
2462;SDS011;1243;54.298;10.172;2023-07-20T03:47:19;5.23;;;3.50;;
2462;SDS011;1243;54.298;10.172;2023-07-20T03:49:45;3.40;;;3.20;;
2462;SDS011;1243;54.298;10.172;2023-07-20T03:52:10;3.70;;;3.30;;
2462;SDS011;1243;54.298;10.172;2023-07-20T03:54:36;2.30;;;2.20;;
2462;SDS011;1243;54.298;10.172;2023-07-20T03:57:02;4.40;;;2.60;;
2462;SDS011;1243;54.298;10.172;2023-07-20T03:59:27;3.30;;;3.03;;
2462;SDS011;1243;54.298;10.172;2023-07-20T04:01:53;3.23;;;2.33;;
2462;SDS011;1243;54.298;10.172;2023-07-20T04:04:19;3.10;;;2.10;;
2462;SDS011;1243;54.298;10.172;2023-07-20T04:06:45;3.20;;;3.00;;
2462;SDS011;1243;54.298;10.172;2023-07-20T04:09:11;4.33;;;2.57;;
2462;SDS011;1243;54.298;10.172;2023-07-20T04:11:37;2.70;;;2.50;;
2462;SDS011;1243;54.298;10.172;2023-07-20T04:14:03;4.53;;;2.60;;
2462;SDS011;1243;54.298;10.172;2023-07-20T04:16:29;2.80;;;2.60;;
2462;SDS011;1243;54.298;10.172;2023-07-20T04:18:55;3.13;;;2.53;;
2462;SDS011;1243;54.298;10.172;2023-07-20T04:21:21;4.70;;;2.90;;
2462;SDS011;1243;54.298;10.172;2023-07-20T04:23:47;3.00;;;2.70;;
2462;SDS011;1243;54.298;10.172;2023-07-20T04:26:13;2.10;;;2.00;;
2462;SDS011;1243;54.298;10.172;2023-07-20T04:28:40;2.90;;;2.70;;
2462;SDS011;1243;54.298;10.172;2023-07-20T04:31:13;6.70;;;2.70;;
2462;SDS011;1243;54.298;10.172;2023-07-20T04:33:40;3.90;;;2.70;;
2462;SDS011;1243;54.298;10.172;2023-07-20T04:36:05;2.83;;;2.63;;
2462;SDS011;1243;54.298;10.172;2023-07-20T04:38:32;4.20;;;3.30;;
2462;SDS011;1243;54.298;10.172;2023-07-20T04:40:58;3.37;;;3.07;;
2462;SDS011;1243;54.298;10.172;2023-07-20T04:43:23;3.17;;;2.97;;
2462;SDS011;1243;54.298;10.172;2023-07-20T04:45:49;3.43;;;3.23;;
2462;SDS011;1243;54.298;10.172;2023-07-20T04:48:15;3.20;;;3.00;;
2462;SDS011;1243;54.298;10.172;2023-07-20T04:50:42;2.93;;;2.60;;
2462;SDS011;1243;54.298;10.172;2023-07-20T04:53:09;2.77;;;2.57;;
2462;SDS011;1243;54.298;10.172;2023-07-20T04:55:36;3.10;;;2.77;;
2462;SDS011;1243;54.298;10.172;2023-07-20T04:58:03;3.10;;;2.00;;
2462;SDS011;1243;54.298;10.172;2023-07-20T05:00:29;6.80;;;2.90;;
2462;SDS011;1243;54.298;10.172;2023-07-20T05:02:56;3.30;;;2.30;;
2462;SDS011;1243;54.298;10.172;2023-07-20T05:05:21;2.40;;;2.20;;
2462;SDS011;1243;54.298;10.172;2023-07-20T05:07:47;5.20;;;3.90;;
2462;SDS011;1243;54.298;10.172;2023-07-20T05:10:13;2.50;;;2.40;;
2462;SDS011;1243;54.298;10.172;2023-07-20T05:12:38;2.20;;;2.10;;
2462;SDS011;1243;54.298;10.172;2023-07-20T05:15:04;8.50;;;2.20;;
2462;SDS011;1243;54.298;10.172;2023-07-20T05:17:30;2.90;;;2.00;;
2462;SDS011;1243;54.298;10.172;2023-07-20T05:19:56;4.10;;;1.80;;
2462;SDS011;1243;54.298;10.172;2023-07-20T05:22:22;2.80;;;1.87;;
2462;SDS011;1243;54.298;10.172;2023-07-20T05:24:49;2.03;;;1.73;;
2462;SDS011;1243;54.298;10.172;2023-07-20T05:27:15;8.07;;;2.03;;
2462;SDS011;1243;54.298;10.172;2023-07-20T05:29:44;2.73;;;1.63;;
2462;SDS011;1243;54.298;10.172;2023-07-20T05:32:11;2.07;;;1.90;;
2462;SDS011;1243;54.298;10.172;2023-07-20T05:34:36;2.00;;;1.90;;
2462;SDS011;1243;54.298;10.172;2023-07-20T05:37:02;2.10;;;1.90;;
2462;SDS011;1243;54.298;10.172;2023-07-20T05:39:28;11.00;;;2.43;;
2462;SDS011;1243;54.298;10.172;2023-07-20T05:41:54;3.77;;;1.90;;
2462;SDS011;1243;54.298;10.172;2023-07-20T05:44:19;1.70;;;1.60;;
2462;SDS011;1243;54.298;10.172;2023-07-20T05:46:45;3.00;;;1.93;;
2462;SDS011;1243;54.298;10.172;2023-07-20T05:49:11;2.17;;;1.93;;
2462;SDS011;1243;54.298;10.172;2023-07-20T05:51:36;6.20;;;2.27;;
2462;SDS011;1243;54.298;10.172;2023-07-20T05:54:02;2.17;;;1.77;;
2462;SDS011;1243;54.298;10.172;2023-07-20T05:56:28;3.97;;;2.27;;
2462;SDS011;1243;54.298;10.172;2023-07-20T05:58:53;7.60;;;2.27;;
2462;SDS011;1243;54.298;10.172;2023-07-20T06:01:19;1.87;;;1.77;;
2462;SDS011;1243;54.298;10.172;2023-07-20T06:03:44;4.67;;;1.87;;
2462;SDS011;1243;54.298;10.172;2023-07-20T06:06:10;5.40;;;2.70;;
2462;SDS011;1243;54.298;10.172;2023-07-20T06:08:37;2.77;;;2.57;;
2462;SDS011;1243;54.298;10.172;2023-07-20T06:11:03;8.67;;;2.03;;
2462;SDS011;1243;54.298;10.172;2023-07-20T06:13:29;3.73;;;2.33;;
2462;SDS011;1243;54.298;10.172;2023-07-20T06:15:54;7.20;;;2.00;;
2462;SDS011;1243;54.298;10.172;2023-07-20T06:18:22;3.50;;;2.40;;
2462;SDS011;1243;54.298;10.172;2023-07-20T06:20:51;2.30;;;2.10;;
2462;SDS011;1243;54.298;10.172;2023-07-20T06:23:18;4.13;;;2.50;;
2462;SDS011;1243;54.298;10.172;2023-07-20T06:25:44;8.50;;;2.33;;
2462;SDS011;1243;54.298;10.172;2023-07-20T06:28:10;3.37;;;2.87;;
2462;SDS011;1243;54.298;10.172;2023-07-20T06:30:36;4.07;;;2.20;;
2462;SDS011;1243;54.298;10.172;2023-07-20T06:33:02;5.50;;;3.10;;
2462;SDS011;1243;54.298;10.172;2023-07-20T06:35:27;4.10;;;2.77;;
2462;SDS011;1243;54.298;10.172;2023-07-20T06:37:53;3.40;;;3.10;;
2462;SDS011;1243;54.298;10.172;2023-07-20T06:40:19;4.23;;;3.00;;
2462;SDS011;1243;54.298;10.172;2023-07-20T06:42:45;8.37;;;3.57;;
2462;SDS011;1243;54.298;10.172;2023-07-20T06:45:11;6.63;;;2.73;;
2462;SDS011;1243;54.298;10.172;2023-07-20T06:47:40;7.43;;;3.30;;
2462;SDS011;1243;54.298;10.172;2023-07-20T06:50:06;4.13;;;2.47;;
2462;SDS011;1243;54.298;10.172;2023-07-20T06:52:33;2.30;;;2.03;;
2462;SDS011;1243;54.298;10.172;2023-07-20T06:54:58;4.30;;;2.17;;
2462;SDS011;1243;54.298;10.172;2023-07-20T06:57:25;7.53;;;2.77;;
2462;SDS011;1243;54.298;10.172;2023-07-20T06:59:51;2.73;;;2.30;;
2462;SDS011;1243;54.298;10.172;2023-07-20T07:02:16;7.57;;;2.10;;
2462;SDS011;1243;54.298;10.172;2023-07-20T07:04:42;6.70;;;2.10;;
2462;SDS011;1243;54.298;10.172;2023-07-20T07:07:08;2.80;;;2.50;;
2462;SDS011;1243;54.298;10.172;2023-07-20T07:09:34;3.97;;;2.30;;
2462;SDS011;1243;54.298;10.172;2023-07-20T07:12:00;8.80;;;2.30;;
2462;SDS011;1243;54.298;10.172;2023-07-20T07:14:26;2.20;;;2.00;;
2462;SDS011;1243;54.298;10.172;2023-07-20T07:16:52;4.93;;;2.30;;
2462;SDS011;1243;54.298;10.172;2023-07-20T07:19:17;2.23;;;1.93;;
2462;SDS011;1243;54.298;10.172;2023-07-20T07:21:43;4.23;;;2.07;;
2462;SDS011;1243;54.298;10.172;2023-07-20T07:24:09;4.27;;;2.30;;
2462;SDS011;1243;54.298;10.172;2023-07-20T07:26:36;5.63;;;2.43;;
2462;SDS011;1243;54.298;10.172;2023-07-20T07:29:02;4.63;;;2.47;;
2462;SDS011;1243;54.298;10.172;2023-07-20T07:31:28;5.70;;;2.40;;
2462;SDS011;1243;54.298;10.172;2023-07-20T07:33:55;5.77;;;2.40;;
2462;SDS011;1243;54.298;10.172;2023-07-20T07:36:21;2.90;;;2.00;;
2462;SDS011;1243;54.298;10.172;2023-07-20T07:38:48;5.17;;;2.47;;
2462;SDS011;1243;54.298;10.172;2023-07-20T07:41:13;6.23;;;2.63;;
2462;SDS011;1243;54.298;10.172;2023-07-20T07:43:39;6.17;;;2.63;;
2462;SDS011;1243;54.298;10.172;2023-07-20T07:46:05;7.20;;;2.17;;
2462;SDS011;1243;54.298;10.172;2023-07-20T07:48:30;11.03;;;2.60;;
2462;SDS011;1243;54.298;10.172;2023-07-20T07:50:56;3.20;;;2.17;;
2462;SDS011;1243;54.298;10.172;2023-07-20T07:53:22;6.67;;;2.50;;
2462;SDS011;1243;54.298;10.172;2023-07-20T07:55:49;5.17;;;1.80;;
2462;SDS011;1243;54.298;10.172;2023-07-20T07:58:14;4.40;;;1.40;;
2462;SDS011;1243;54.298;10.172;2023-07-20T08:00:40;2.53;;;2.33;;
2462;SDS011;1243;54.298;10.172;2023-07-20T08:03:06;5.93;;;1.90;;
2462;SDS011;1243;54.298;10.172;2023-07-20T08:05:32;4.70;;;2.30;;
2462;SDS011;1243;54.298;10.172;2023-07-20T08:07:58;2.30;;;1.93;;
2462;SDS011;1243;54.298;10.172;2023-07-20T08:10:24;4.60;;;2.43;;
2462;SDS011;1243;54.298;10.172;2023-07-20T08:12:50;4.53;;;1.53;;
2462;SDS011;1243;54.298;10.172;2023-07-20T08:15:16;3.30;;;1.70;;
2462;SDS011;1243;54.298;10.172;2023-07-20T08:17:42;6.20;;;2.83;;
2462;SDS011;1243;54.298;10.172;2023-07-20T08:20:12;3.40;;;1.90;;
2462;SDS011;1243;54.298;10.172;2023-07-20T08:22:38;3.90;;;2.43;;
2462;SDS011;1243;54.298;10.172;2023-07-20T08:25:05;4.63;;;1.87;;
2462;SDS011;1243;54.298;10.172;2023-07-20T08:27:31;3.00;;;1.80;;
2462;SDS011;1243;54.298;10.172;2023-07-20T08:29:57;2.30;;;1.57;;
2462;SDS011;1243;54.298;10.172;2023-07-20T08:32:23;3.67;;;1.30;;
2462;SDS011;1243;54.298;10.172;2023-07-20T08:34:48;1.57;;;1.37;;
2462;SDS011;1243;54.298;10.172;2023-07-20T08:37:14;3.10;;;1.90;;
2462;SDS011;1243;54.298;10.172;2023-07-20T08:39:39;4.93;;;1.40;;
2462;SDS011;1243;54.298;10.172;2023-07-20T08:42:05;2.10;;;1.30;;
2462;SDS011;1243;54.298;10.172;2023-07-20T08:44:35;2.60;;;1.40;;
2462;SDS011;1243;54.298;10.172;2023-07-20T08:47:03;2.13;;;1.47;;
2462;SDS011;1243;54.298;10.172;2023-07-20T08:49:34;3.00;;;1.40;;
2462;SDS011;1243;54.298;10.172;2023-07-20T08:52:00;4.33;;;1.60;;
2462;SDS011;1243;54.298;10.172;2023-07-20T08:54:30;3.67;;;1.37;;
2462;SDS011;1243;54.298;10.172;2023-07-20T08:57:02;2.23;;;1.60;;
2462;SDS011;1243;54.298;10.172;2023-07-20T08:59:29;2.80;;;1.23;;
2462;SDS011;1243;54.298;10.172;2023-07-20T09:01:58;4.67;;;2.60;;
2462;SDS011;1243;54.298;10.172;2023-07-20T09:04:25;2.20;;;1.30;;
2462;SDS011;1243;54.298;10.172;2023-07-20T09:06:51;5.43;;;1.33;;
2462;SDS011;1243;54.298;10.172;2023-07-20T09:09:17;1.90;;;1.30;;
2462;SDS011;1243;54.298;10.172;2023-07-20T09:11:43;1.73;;;1.30;;
2462;SDS011;1243;54.298;10.172;2023-07-20T09:14:12;1.53;;;1.30;;
2462;SDS011;1243;54.298;10.172;2023-07-20T09:16:47;2.83;;;1.53;;
2462;SDS011;1243;54.298;10.172;2023-07-20T09:19:21;2.37;;;1.10;;
2462;SDS011;1243;54.298;10.172;2023-07-20T09:21:50;2.43;;;1.07;;
2462;SDS011;1243;54.298;10.172;2023-07-20T09:24:17;2.77;;;1.33;;
2462;SDS011;1243;54.298;10.172;2023-07-20T09:26:44;2.40;;;1.17;;
2462;SDS011;1243;54.298;10.172;2023-07-20T09:29:13;1.97;;;1.10;;
2462;SDS011;1243;54.298;10.172;2023-07-20T09:31:39;1.87;;;1.10;;
2462;SDS011;1243;54.298;10.172;2023-07-20T09:34:05;4.30;;;0.90;;
2462;SDS011;1243;54.298;10.172;2023-07-20T09:36:38;1.87;;;0.70;;
2462;SDS011;1243;54.298;10.172;2023-07-20T09:39:03;4.37;;;0.93;;
2462;SDS011;1243;54.298;10.172;2023-07-20T09:41:30;2.37;;;1.10;;
2462;SDS011;1243;54.298;10.172;2023-07-20T09:44:04;2.83;;;1.20;;
2462;SDS011;1243;54.298;10.172;2023-07-20T09:46:40;1.10;;;0.90;;
2462;SDS011;1243;54.298;10.172;2023-07-20T09:49:10;1.53;;;0.73;;
2462;SDS011;1243;54.298;10.172;2023-07-20T09:51:36;2.53;;;0.73;;
2462;SDS011;1243;54.298;10.172;2023-07-20T09:54:02;2.20;;;0.70;;
2462;SDS011;1243;54.298;10.172;2023-07-20T09:56:29;1.70;;;0.70;;
2462;SDS011;1243;54.298;10.172;2023-07-20T09:58:56;3.33;;;1.30;;
2462;SDS011;1243;54.298;10.172;2023-07-20T10:01:22;3.87;;;1.00;;
2462;SDS011;1243;54.298;10.172;2023-07-20T10:03:50;4.60;;;0.90;;
2462;SDS011;1243;54.298;10.172;2023-07-20T10:06:20;1.70;;;0.80;;
2462;SDS011;1243;54.298;10.172;2023-07-20T10:08:49;1.23;;;1.00;;
2462;SDS011;1243;54.298;10.172;2023-07-20T10:11:21;1.43;;;0.97;;
2462;SDS011;1243;54.298;10.172;2023-07-20T10:13:51;0.90;;;0.50;;
2462;SDS011;1243;54.298;10.172;2023-07-20T10:16:22;1.57;;;0.60;;
2462;SDS011;1243;54.298;10.172;2023-07-20T10:21:50;1.53;;;0.60;;
2462;SDS011;1243;54.298;10.172;2023-07-20T10:24:21;1.00;;;0.50;;
2462;SDS011;1243;54.298;10.172;2023-07-20T10:26:49;1.57;;;0.60;;
2462;SDS011;1243;54.298;10.172;2023-07-20T10:29:15;1.43;;;0.60;;
2462;SDS011;1243;54.298;10.172;2023-07-20T10:31:42;1.33;;;0.60;;
2462;SDS011;1243;54.298;10.172;2023-07-20T10:34:08;3.63;;;0.90;;
2462;SDS011;1243;54.298;10.172;2023-07-20T10:36:35;1.50;;;0.80;;
2462;SDS011;1243;54.298;10.172;2023-07-20T10:39:26;1.90;;;0.73;;
2462;SDS011;1243;54.298;10.172;2023-07-20T10:44:36;2.37;;;0.90;;
2462;SDS011;1243;54.298;10.172;2023-07-20T10:47:03;1.00;;;0.90;;
2462;SDS011;1243;54.298;10.172;2023-07-20T10:49:34;5.83;;;2.30;;
2462;SDS011;1243;54.298;10.172;2023-07-20T10:52:04;4.23;;;1.67;;
2462;SDS011;1243;54.298;10.172;2023-07-20T10:56:57;2.47;;;1.50;;
2462;SDS011;1243;54.298;10.172;2023-07-20T10:59:43;4.27;;;1.30;;
2462;SDS011;1243;54.298;10.172;2023-07-20T11:02:17;4.97;;;1.37;;
2462;SDS011;1243;54.298;10.172;2023-07-20T11:04:45;3.40;;;0.90;;
2462;SDS011;1243;54.298;10.172;2023-07-20T11:07:15;4.30;;;1.40;;
2462;SDS011;1243;54.298;10.172;2023-07-20T11:09:42;3.23;;;1.20;;
2462;SDS011;1243;54.298;10.172;2023-07-20T11:14:57;3.77;;;1.80;;
2462;SDS011;1243;54.298;10.172;2023-07-20T11:17:32;2.67;;;1.13;;
2462;SDS011;1243;54.298;10.172;2023-07-20T11:19:59;3.13;;;1.07;;
2462;SDS011;1243;54.298;10.172;2023-07-20T11:22:26;1.93;;;1.07;;
2462;SDS011;1243;54.298;10.172;2023-07-20T11:24:55;2.87;;;1.00;;
2462;SDS011;1243;54.298;10.172;2023-07-20T11:27:21;4.40;;;3.23;;
2462;SDS011;1243;54.298;10.172;2023-07-20T11:29:48;5.43;;;1.30;;
2462;SDS011;1243;54.298;10.172;2023-07-20T11:32:21;2.60;;;1.47;;
2462;SDS011;1243;54.298;10.172;2023-07-20T11:34:50;1.83;;;0.90;;
2462;SDS011;1243;54.298;10.172;2023-07-20T11:37:18;6.03;;;1.20;;
2462;SDS011;1243;54.298;10.172;2023-07-20T11:39:44;3.80;;;1.20;;
2462;SDS011;1243;54.298;10.172;2023-07-20T11:42:10;3.60;;;0.90;;
2462;SDS011;1243;54.298;10.172;2023-07-20T11:44:37;1.60;;;1.17;;
2462;SDS011;1243;54.298;10.172;2023-07-20T11:47:04;1.27;;;1.07;;
2462;SDS011;1243;54.298;10.172;2023-07-20T11:49:37;2.33;;;1.10;;
2462;SDS011;1243;54.298;10.172;2023-07-20T11:52:05;2.20;;;1.23;;
2462;SDS011;1243;54.298;10.172;2023-07-20T11:54:32;3.50;;;1.47;;
2462;SDS011;1243;54.298;10.172;2023-07-20T11:57:02;2.27;;;1.30;;
2462;SDS011;1243;54.298;10.172;2023-07-20T11:59:30;2.53;;;1.53;;
2462;SDS011;1243;54.298;10.172;2023-07-20T12:01:56;3.33;;;1.50;;
2462;SDS011;1243;54.298;10.172;2023-07-20T12:04:23;3.73;;;1.80;;
2462;SDS011;1243;54.298;10.172;2023-07-20T12:06:49;2.13;;;1.67;;
2462;SDS011;1243;54.298;10.172;2023-07-20T12:09:15;3.07;;;1.00;;
2462;SDS011;1243;54.298;10.172;2023-07-20T12:11:42;2.30;;;1.27;;
2462;SDS011;1243;54.298;10.172;2023-07-20T12:14:12;3.00;;;0.80;;
2462;SDS011;1243;54.298;10.172;2023-07-20T12:16:38;3.33;;;1.27;;
2462;SDS011;1243;54.298;10.172;2023-07-20T12:19:07;1.67;;;1.20;;
2462;SDS011;1243;54.298;10.172;2023-07-20T12:21:35;3.20;;;1.33;;
2462;SDS011;1243;54.298;10.172;2023-07-20T12:24:03;2.40;;;1.20;;
2462;SDS011;1243;54.298;10.172;2023-07-20T12:26:30;1.67;;;1.30;;
2462;SDS011;1243;54.298;10.172;2023-07-20T12:28:56;3.37;;;0.90;;
2462;SDS011;1243;54.298;10.172;2023-07-20T12:31:23;4.03;;;1.40;;
2462;SDS011;1243;54.298;10.172;2023-07-20T12:33:49;2.43;;;1.10;;
2462;SDS011;1243;54.298;10.172;2023-07-20T12:36:16;2.40;;;1.30;;
2462;SDS011;1243;54.298;10.172;2023-07-20T12:38:43;3.03;;;1.00;;
2462;SDS011;1243;54.298;10.172;2023-07-20T12:41:09;1.20;;;1.07;;
2462;SDS011;1243;54.298;10.172;2023-07-20T12:43:42;2.70;;;1.33;;
2462;SDS011;1243;54.298;10.172;2023-07-20T12:46:08;3.53;;;0.90;;
2462;SDS011;1243;54.298;10.172;2023-07-20T12:48:37;2.10;;;1.07;;
2462;SDS011;1243;54.298;10.172;2023-07-20T12:51:05;2.53;;;1.10;;
2462;SDS011;1243;54.298;10.172;2023-07-20T12:53:31;1.57;;;0.97;;
2462;SDS011;1243;54.298;10.172;2023-07-20T12:55:57;4.07;;;1.30;;
2462;SDS011;1243;54.298;10.172;2023-07-20T12:58:24;3.80;;;1.17;;
2462;SDS011;1243;54.298;10.172;2023-07-20T13:00:50;1.67;;;0.90;;
2462;SDS011;1243;54.298;10.172;2023-07-20T13:03:16;3.50;;;1.20;;
2462;SDS011;1243;54.298;10.172;2023-07-20T13:05:43;3.10;;;1.43;;
2462;SDS011;1243;54.298;10.172;2023-07-20T13:08:10;10.33;;;2.40;;
2462;SDS011;1243;54.298;10.172;2023-07-20T13:10:36;3.53;;;1.90;;
2462;SDS011;1243;54.298;10.172;2023-07-20T13:13:03;5.50;;;1.30;;
2462;SDS011;1243;54.298;10.172;2023-07-20T13:15:30;2.13;;;1.30;;
2462;SDS011;1243;54.298;10.172;2023-07-20T13:17:57;5.60;;;1.80;;
2462;SDS011;1243;54.298;10.172;2023-07-20T13:20:24;6.40;;;1.50;;
2462;SDS011;1243;54.298;10.172;2023-07-20T13:22:50;4.00;;;1.33;;
2462;SDS011;1243;54.298;10.172;2023-07-20T13:25:16;1.97;;;1.60;;
2462;SDS011;1243;54.298;10.172;2023-07-20T13:27:41;6.70;;;1.20;;
2462;SDS011;1243;54.298;10.172;2023-07-20T13:30:07;1.67;;;1.20;;
2462;SDS011;1243;54.298;10.172;2023-07-20T13:32:35;1.67;;;1.03;;
2462;SDS011;1243;54.298;10.172;2023-07-20T13:35:01;2.57;;;1.00;;
2462;SDS011;1243;54.298;10.172;2023-07-20T13:37:28;3.03;;;0.93;;
2462;SDS011;1243;54.298;10.172;2023-07-20T13:39:54;1.27;;;0.93;;
2462;SDS011;1243;54.298;10.172;2023-07-20T13:42:20;5.40;;;1.20;;
2462;SDS011;1243;54.298;10.172;2023-07-20T13:44:46;2.23;;;1.23;;
2462;SDS011;1243;54.298;10.172;2023-07-20T13:47:13;1.87;;;0.93;;
2462;SDS011;1243;54.298;10.172;2023-07-20T13:49:39;2.20;;;1.67;;
2462;SDS011;1243;54.298;10.172;2023-07-20T13:52:05;3.23;;;1.20;;
2462;SDS011;1243;54.298;10.172;2023-07-20T13:54:31;4.13;;;1.10;;
2462;SDS011;1243;54.298;10.172;2023-07-20T13:56:56;2.73;;;1.03;;
2462;SDS011;1243;54.298;10.172;2023-07-20T13:59:22;5.30;;;1.60;;
2462;SDS011;1243;54.298;10.172;2023-07-20T14:01:48;7.53;;;1.37;;
2462;SDS011;1243;54.298;10.172;2023-07-20T14:04:14;1.77;;;1.17;;
2462;SDS011;1243;54.298;10.172;2023-07-20T14:06:40;3.57;;;1.10;;
2462;SDS011;1243;54.298;10.172;2023-07-20T14:09:06;4.97;;;1.10;;
2462;SDS011;1243;54.298;10.172;2023-07-20T14:11:32;3.17;;;1.20;;
2462;SDS011;1243;54.298;10.172;2023-07-20T14:13:58;2.23;;;1.03;;
2462;SDS011;1243;54.298;10.172;2023-07-20T14:16:24;3.93;;;1.30;;
2462;SDS011;1243;54.298;10.172;2023-07-20T14:18:50;2.23;;;0.80;;
2462;SDS011;1243;54.298;10.172;2023-07-20T14:21:16;1.77;;;1.00;;
2462;SDS011;1243;54.298;10.172;2023-07-20T14:23:47;4.60;;;1.20;;
2462;SDS011;1243;54.298;10.172;2023-07-20T14:26:14;1.40;;;1.03;;
2462;SDS011;1243;54.298;10.172;2023-07-20T14:28:40;1.20;;;0.90;;
2462;SDS011;1243;54.298;10.172;2023-07-20T14:31:06;2.40;;;1.17;;
2462;SDS011;1243;54.298;10.172;2023-07-20T14:33:32;4.33;;;1.27;;
2462;SDS011;1243;54.298;10.172;2023-07-20T14:35:58;6.77;;;1.10;;
2462;SDS011;1243;54.298;10.172;2023-07-20T14:38:26;1.90;;;0.90;;
2462;SDS011;1243;54.298;10.172;2023-07-20T14:40:53;4.17;;;1.30;;
2462;SDS011;1243;54.298;10.172;2023-07-20T14:43:19;5.80;;;1.20;;
2462;SDS011;1243;54.298;10.172;2023-07-20T14:45:45;2.33;;;1.83;;
2462;SDS011;1243;54.298;10.172;2023-07-20T14:48:11;2.23;;;1.30;;
2462;SDS011;1243;54.298;10.172;2023-07-20T14:50:37;1.83;;;1.10;;
2462;SDS011;1243;54.298;10.172;2023-07-20T14:53:03;4.00;;;1.00;;
2462;SDS011;1243;54.298;10.172;2023-07-20T14:55:28;2.53;;;1.00;;
2462;SDS011;1243;54.298;10.172;2023-07-20T14:57:54;2.00;;;0.93;;
2462;SDS011;1243;54.298;10.172;2023-07-20T15:00:20;3.53;;;1.47;;
2462;SDS011;1243;54.298;10.172;2023-07-20T15:02:46;1.60;;;1.00;;
2462;SDS011;1243;54.298;10.172;2023-07-20T15:05:11;2.77;;;0.90;;
2462;SDS011;1243;54.298;10.172;2023-07-20T15:07:45;1.43;;;1.10;;
2462;SDS011;1243;54.298;10.172;2023-07-20T15:10:10;3.17;;;1.43;;
2462;SDS011;1243;54.298;10.172;2023-07-20T15:12:36;1.50;;;0.90;;
2462;SDS011;1243;54.298;10.172;2023-07-20T15:15:03;4.00;;;1.37;;